Time;durP1;ratioP1;P1;durP2;ratioP2;P2;SDS_P1;SDS_P2;PMS_P1;PMS_P2;Temp;Humidity;BMP_temperature;BMP_pressure;BME280_temperature;BME280_humidity;BME280_pressure;Samples;Min_cycle;Max_cycle;Signal;HPM_P1;HPM_P2
2022/03/31 00:00:41;;;;;;;38.58;26.98;;;;;;;29.27;66.51;100811.16;4992236;28;65824;-38
2022/03/31 00:03:17;;;;;;;41.45;27.70;;;;;;;29.32;66.73;100797.03;5019617;28;69072;-36
2022/03/31 00:05:51;;;;;;;37.10;30.55;;;;;;;29.34;67.32;100809.28;5030232;28;65737;-37
2022/03/31 00:08:22;;;;;;;39.65;31.95;;;;;;;29.35;67.90;100802.84;5034792;28;69850;-37
2022/03/31 00:10:55;;;;;;;32.80;28.33;;;;;;;29.38;67.94;100807.81;5019603;28;65624;-37
2022/03/31 00:13:28;;;;;;;45.90;28.70;;;;;;;29.08;67.75;100758.00;5009176;28;69975;-37
2022/03/31 00:15:59;;;;;;;39.67;28.90;;;;;;;29.48;67.88;100822.78;5015715;28;65400;-37
2022/03/31 00:18:31;;;;;;;37.72;28.63;;;;;;;29.49;67.91;100827.13;5016565;28;70188;-37
2022/03/31 00:21:02;;;;;;;36.20;28.95;;;;;;;29.48;68.48;100817.38;5015959;28;65427;-36
2022/03/31 00:23:36;;;;;;;32.55;26.13;;;;;;;29.53;68.75;100831.03;5011476;28;69260;-37
2022/03/31 00:26:08;;;;;;;35.35;25.42;;;;;;;29.59;68.38;100836.44;4996153;28;65993;-37
2022/03/31 00:28:41;;;;;;;36.15;23.60;;;;;;;29.55;68.66;100828.97;4981132;28;69925;-37
2022/03/31 00:31:12;;;;;;;27.55;23.17;;;;;;;29.67;67.96;100848.94;5014679;28;66786;-38
2022/03/31 00:33:43;;;;;;;;;;;;;;;29.43;68.75;100857.69;5005312;28;70372;-37
2022/03/31 00:36:14;;;;;;;24.95;20.02;;;;;;;29.77;65.50;100859.28;4968890;28;65513;-38
2022/03/31 00:39:28;;;;;;;24.48;18.35;;;;;;;29.86;64.60;100868.00;5001997;28;70264;-38
2022/03/31 00:41:37;;;;;;;19.30;17.45;;;;;;;30.02;64.00;100872.94;5017249;28;67006;-36
2022/03/31 00:44:09;;;;;;;21.65;19.40;;;;;;;29.88;63.96;100844.28;5020685;28;69349;-36
2022/03/31 00:46:52;;;;;;;20.23;17.87;;;;;;;30.08;65.16;100882.88;5019047;28;65185;-40
2022/03/31 00:49:25;;;;;;;21.50;17.65;;;;;;;30.21;63.35;100882.81;5035059;28;69387;-39
2022/03/31 00:51:55;;;;;;;17.92;16.25;;;;;;;30.25;62.73;100884.06;5016661;28;67673;-41
2022/03/31 00:54:27;;;;;;;19.63;17.70;;;;;;;30.30;62.48;100885.31;5027764;28;70038;-39
2022/03/31 00:56:59;;;;;;;18.80;16.98;;;;;;;30.32;62.46;100889.47;5014948;28;65224;-39
2022/03/31 00:59:31;;;;;;;19.13;17.25;;;;;;;30.41;62.36;100903.56;5012996;28;69447;-39
2022/03/31 01:02:01;;;;;;;18.27;16.57;;;;;;;30.37;61.94;100894.22;5015501;28;66271;-38
2022/03/31 01:04:34;;;;;;;17.77;16.20;;;;;;;30.54;62.18;100910.81;5017437;28;70335;-38
2022/03/31 01:07:05;;;;;;;21.13;19.02;;;;;;;30.55;61.96;100907.84;5017244;28;65897;-39
2022/03/31 01:09:35;;;;;;;20.48;17.88;;;;;;;30.61;62.13;100909.69;5015278;28;69977;-39
2022/03/31 01:12:07;;;;;;;17.20;15.55;;;;;;;30.66;62.22;100918.00;5003071;28;65699;-38
2022/03/31 01:14:38;;;;;;;;;;;;;;;30.34;63.60;100921.72;5002986;28;68802;-39
2022/03/31 01:17:09;;;;;;;17.63;16.05;;;;;;;30.67;62.26;100921.53;5019095;28;64690;-39
2022/03/31 01:19:40;;;;;;;19.02;15.38;;;;;;;30.73;61.85;100917.97;5012360;28;70284;-39
2022/03/31 01:22:11;;;;;;;17.52;15.52;;;;;;;30.77;62.31;100918.34;5000214;28;66700;-40
2022/03/31 01:24:41;;;;;;;17.05;15.70;;;;;;;30.85;61.84;100931.66;5011025;28;69620;-40
2022/03/31 01:27:12;;;;;;;19.77;16.42;;;;;;;30.87;62.00;100932.25;5005115;28;66185;-41
2022/03/31 01:29:43;;;;;;;17.90;16.30;;;;;;;30.93;62.22;100928.69;4980336;28;70020;-39
2022/03/31 01:32:13;;;;;;;17.25;15.73;;;;;;;30.83;61.79;100917.50;4999122;28;65347;-39
2022/03/31 01:34:46;;;;;;;20.63;15.95;;;;;;;30.97;62.07;100940.72;4997235;28;69061;-40
2022/03/31 01:37:16;;;;;;;17.88;16.17;;;;;;;30.97;62.49;100935.31;4997258;28;67419;-39
2022/03/31 01:39:47;;;;;;;18.83;17.25;;;;;;;31.02;62.10;100938.19;5022952;28;70226;-45
2022/03/31 01:42:18;;;;;;;21.35;18.83;;;;;;;31.05;61.94;100932.34;5013880;28;66111;-39
2022/03/31 01:44:49;;;;;;;19.73;17.80;;;;;;;31.09;62.02;100922.72;5016030;28;70064;-40
2022/03/31 01:47:20;;;;;;;22.15;19.92;;;;;;;31.04;61.74;100909.00;5014430;28;65934;-39
2022/03/31 01:49:51;;;;;;;22.00;19.92;;;;;;;31.07;61.82;100899.63;5015416;28;70217;-40
2022/03/31 01:52:22;;;;;;;24.65;22.08;;;;;;;31.14;61.96;100920.16;5019904;28;65727;-38
2022/03/31 01:54:53;;;;;;;25.50;22.13;;;;;;;31.16;62.03;100917.25;4997243;28;69159;-39
2022/03/31 01:57:23;;;;;;;24.67;22.35;;;;;;;31.16;61.93;100912.66;5011564;28;66634;-39
2022/03/31 01:59:54;;;;;;;24.52;22.27;;;;;;;31.23;62.05;100911.75;5016891;28;69458;-39
2022/03/31 02:02:27;;;;;;;25.45;22.88;;;;;;;31.28;62.03;100911.94;4972805;28;65157;-40
2022/03/31 02:04:59;;;;;;;24.77;21.83;;;;;;;31.30;61.78;100912.53;5031550;28;70087;-40
2022/03/31 02:07:30;;;;;;;23.45;20.95;;;;;;;31.29;62.10;100908.19;5033182;28;65330;-39
2022/03/31 02:10:01;;;;;;;22.65;20.45;;;;;;;31.34;61.64;100905.59;5014361;28;70103;-39
2022/03/31 02:12:33;;;;;;;23.38;20.48;;;;;;;31.34;61.90;100898.34;4999900;28;66516;-41
2022/03/31 02:15:05;;;;;;;22.70;20.73;;;;;;;31.38;61.79;100901.44;5001943;28;69868;-39
2022/03/31 02:17:36;;;;;;;23.88;21.63;;;;;;;31.38;61.84;100891.44;5004020;28;65177;-42
2022/03/31 02:20:09;;;;;;;32.60;25.02;;;;;;;31.39;61.83;100892.25;4964059;28;69827;-39
2022/03/31 02:22:40;;;;;;;27.58;24.65;;;;;;;31.46;61.65;100892.19;5022324;28;66356;-38
2022/03/31 02:25:11;;;;;;;29.90;25.77;;;;;;;31.50;61.10;100891.50;5012973;28;68579;-39
2022/03/31 02:27:42;;;;;;;28.47;25.43;;;;;;;31.50;61.59;100896.09;4998899;28;66155;-38
2022/03/31 02:30:13;;;;;;;27.53;24.37;;;;;;;31.54;61.41;100894.63;4999633;28;71055;-38
2022/03/31 02:32:44;;;;;;;25.77;23.08;;;;;;;31.59;61.20;100894.75;4975048;28;65896;-39
2022/03/31 02:35:17;;;;;;;26.20;22.97;;;;;;;31.60;61.30;100885.59;4982958;28;70065;-39
2022/03/31 02:37:48;;;;;;;25.27;22.55;;;;;;;31.60;61.15;100891.84;4994168;28;65954;-39
2022/03/31 02:40:19;;;;;;;23.48;20.85;;;;;;;31.61;61.36;100893.47;4999650;28;70490;-40
2022/03/31 02:42:50;;;;;;;23.35;20.95;;;;;;;31.59;61.46;100868.50;4993369;28;65748;-39
2022/03/31 02:45:21;;;;;;;22.65;20.35;;;;;;;31.70;60.90;100874.19;5014201;28;69464;-41
2022/03/31 02:47:53;;;;;;;22.45;20.25;;;;;;;31.71;61.05;100875.88;4977167;28;65178;-38
2022/03/31 02:50:24;;;;;;;21.63;19.52;;;;;;;31.73;61.11;100874.59;4982086;28;68651;-38
2022/03/31 02:55:44;;;;;;;22.10;19.90;;;;;;;31.79;60.77;100862.00;4993469;28;69263;-41
2022/03/31 02:58:15;;;;;;;21.43;19.20;;;;;;;31.82;60.89;100864.28;5008551;28;65649;-39
2022/03/31 03:00:46;;;;;;;20.52;18.60;;;;;;;31.80;60.35;100841.97;5002139;28;70618;-39
2022/03/31 03:03:17;;;;;;;19.50;17.60;;;;;;;31.89;60.22;100848.72;4973748;28;66156;-39
2022/03/31 03:05:48;;;;;;;19.90;17.25;;;;;;;31.87;60.68;100842.69;4993920;28;71337;-39
2022/03/31 03:08:20;;;;;;;19.73;17.73;;;;;;;31.92;60.48;100840.16;5008117;28;65157;-39
2022/03/31 03:10:51;;;;;;;18.77;17.20;;;;;;;31.94;60.39;100842.66;4995105;28;69934;-39
2022/03/31 03:13:22;;;;;;;18.13;16.42;;;;;;;31.95;60.12;100841.59;4943095;28;66366;-39
2022/03/31 03:15:54;;;;;;;17.17;15.80;;;;;;;31.96;59.91;100841.38;4989893;28;69767;-39
2022/03/31 03:18:25;;;;;;;19.08;17.23;;;;;;;32.05;60.24;100845.41;4992983;28;65333;-39
2022/03/31 03:20:56;;;;;;;17.38;15.60;;;;;;;32.09;59.97;100840.34;4974257;28;69443;-39
2022/03/31 03:23:28;;;;;;;19.75;17.83;;;;;;;32.10;60.03;100836.59;4992698;28;66441;-39
2022/03/31 03:26:01;;;;;;;18.73;17.05;;;;;;;32.13;60.06;100824.47;5010541;28;70918;-39
2022/03/31 03:28:35;;;;;;;22.35;17.63;;;;;;;32.19;59.85;100829.78;5014768;28;67162;-39
2022/03/31 03:31:07;;;;;;;19.35;17.23;;;;;;;32.21;59.96;100833.09;5015463;28;69596;-39
2022/03/31 03:33:38;;;;;;;19.50;17.60;;;;;;;32.23;59.68;100830.13;5016238;28;66159;-39
2022/03/31 03:36:11;;;;;;;19.13;17.27;;;;;;;32.21;59.65;100829.56;5016513;28;70584;-38
2022/03/31 03:38:42;;;;;;;20.77;16.77;;;;;;;32.18;59.47;100811.84;5013822;28;66618;-39
2022/03/31 03:41:14;;;;;;;19.17;17.15;;;;;;;32.27;59.26;100821.31;5012650;28;69022;-39
2022/03/31 03:43:45;;;;;;;18.57;16.73;;;;;;;32.30;59.55;100809.16;5015003;28;65495;-39
2022/03/31 03:46:15;;;;;;;17.52;15.85;;;;;;;32.33;58.96;100802.44;5014045;28;70022;-39
2022/03/31 03:48:46;;;;;;;17.80;16.25;;;;;;;32.36;59.23;100802.81;5012664;28;66215;-39
2022/03/31 03:51:17;;;;;;;18.15;16.40;;;;;;;32.38;59.02;100789.84;5010652;28;70003;-39
2022/03/31 03:53:48;;;;;;;20.07;16.27;;;;;;;32.38;58.95;100789.00;5010697;28;65514;-40
2022/03/31 03:56:19;;;;;;;17.35;15.65;;;;;;;32.07;58.71;100744.81;4994720;28;70382;-40
2022/03/31 03:58:50;;;;;;;18.77;15.75;;;;;;;32.39;58.96;100775.19;5013368;28;67985;-39
2022/03/31 04:01:21;;;;;;;20.70;16.45;;;;;;;32.49;59.01;100786.34;5010381;28;69107;-38
2022/03/31 04:03:51;;;;;;;18.02;16.65;;;;;;;32.52;58.87;100795.09;5014859;28;66391;-39
2022/03/31 04:06:22;;;;;;;16.30;14.70;;;;;;;32.54;58.83;100792.94;5014138;28;70221;-39
2022/03/31 04:08:53;;;;;;;20.90;16.30;;;;;;;32.55;58.73;100786.47;5008258;28;66357;-39
2022/03/31 04:11:24;;;;;;;17.30;15.80;;;;;;;32.57;58.34;100787.03;4992942;28;69400;-39
2022/03/31 04:13:55;;;;;;;18.63;16.30;;;;;;;32.57;58.39;100779.75;5011950;28;65125;-39
2022/03/31 04:16:25;;;;;;;17.02;15.10;;;;;;;32.57;58.19;100778.91;5012727;28;70787;-39
2022/03/31 04:18:56;;;;;;;17.23;15.77;;;;;;;32.60;58.29;100773.03;5013399;28;67634;-38
2022/03/31 04:21:27;;;;;;;19.65;15.07;;;;;;;32.61;58.03;100759.19;5004541;28;70719;-38
2022/03/31 04:23:58;;;;;;;16.38;14.88;;;;;;;32.64;57.86;100761.44;5012714;28;66558;-38
2022/03/31 04:26:28;;;;;;;16.58;15.15;;;;;;;32.60;57.84;100740.44;5011995;28;69766;-39
2022/03/31 04:29:08;;;;;;;18.17;16.30;;;;;;;32.67;58.03;100752.00;5008579;28;65790;-39
2022/03/31 04:31:43;;;;;;;17.30;15.63;;;;;;;32.66;57.94;100740.31;4994747;28;69069;-39
2022/03/31 04:34:16;;;;;;;18.75;15.95;;;;;;;32.73;57.84;100742.91;5012493;28;65666;-40
2022/03/31 04:36:47;;;;;;;18.90;17.00;;;;;;;32.72;57.85;100739.34;5014039;28;69505;-39
2022/03/31 04:39:18;;;;;;;17.92;16.45;;;;;;;32.74;58.37;100733.69;4985481;28;66002;-39
2022/03/31 04:41:49;;;;;;;18.17;16.60;;;;;;;32.76;57.61;100742.41;4982252;28;69717;-39
2022/03/31 04:44:19;;;;;;;19.25;17.58;;;;;;;32.80;57.55;100738.19;4995326;28;65419;-38
2022/03/31 04:46:50;;;;;;;19.38;17.50;;;;;;;32.77;57.48;100733.22;5000201;28;69666;-39
2022/03/31 04:49:21;;;;;;;19.00;17.40;;;;;;;32.82;57.53;100736.06;5005918;28;65998;-39
2022/03/31 04:51:52;;;;;;;20.40;18.40;;;;;;;32.82;57.59;100730.63;5019975;28;70178;-39
2022/03/31 04:54:23;;;;;;;21.90;19.88;;;;;;;32.84;57.54;100733.91;5001793;28;66080;-38
2022/03/31 04:56:54;;;;;;;22.25;19.20;;;;;;;32.88;57.78;100729.69;5001327;28;69501;-38
2022/03/31 04:59:24;;;;;;;19.50;17.88;;;;;;;32.89;57.74;100725.06;5000144;28;65285;-38
2022/03/31 05:01:55;;;;;;;21.90;19.73;;;;;;;32.80;57.90;100716.44;5006712;28;68684;-39
2022/03/31 05:04:25;;;;;;;19.75;17.80;;;;;;;32.89;57.84;100720.44;5001551;28;65115;-38
2022/03/31 05:06:56;;;;;;;21.73;19.55;;;;;;;32.91;57.64;100718.31;4985762;28;68769;-39
2022/03/31 05:09:27;;;;;;;20.85;18.65;;;;;;;32.92;57.83;100719.16;5015441;28;66231;-39
2022/03/31 05:11:57;;;;;;;20.90;18.73;;;;;;;32.92;57.86;100709.09;4957324;28;69874;-39
2022/03/31 05:14:28;;;;;;;21.77;18.73;;;;;;;32.92;57.76;100697.41;5003682;28;65886;-38
2022/03/31 05:16:59;;;;;;;22.05;19.85;;;;;;;32.91;57.85;100693.88;5019847;28;70027;-39
2022/03/31 05:19:30;;;;;;;19.98;18.27;;;;;;;32.86;57.97;100682.91;5015262;28;65642;-38
2022/03/31 05:22:01;;;;;;;21.05;18.88;;;;;;;32.96;57.60;100693.16;5010720;28;71669;-39
2022/03/31 05:24:31;;;;;;;21.40;19.23;;;;;;;32.89;57.74;100670.72;5020233;28;65706;-39
2022/03/31 05:27:02;;;;;;;21.88;19.60;;;;;;;32.98;58.22;100682.88;5018642;28;69688;-39
2022/03/31 05:29:34;;;;;;;21.08;18.90;;;;;;;32.98;57.85;100682.88;5019549;28;66000;-39
2022/03/31 05:32:06;;;;;;;20.58;18.77;;;;;;;33.00;57.87;100682.66;5019831;28;68963;-39
2022/03/31 05:34:36;;;;;;;21.35;18.92;;;;;;;33.01;57.94;100673.44;5013125;28;66305;-38
2022/03/31 05:37:08;;;;;;;21.10;18.83;;;;;;;33.03;58.10;100665.88;5017865;28;69808;-39
2022/03/31 05:39:38;;;;;;;20.50;18.55;;;;;;;33.05;57.61;100663.75;5014531;28;65872;-38
2022/03/31 05:42:09;;;;;;;21.47;19.27;;;;;;;33.06;57.87;100659.97;5016568;28;70214;-39
2022/03/31 05:44:40;;;;;;;20.13;18.38;;;;;;;33.08;57.73;100646.97;5019149;28;65494;-39
2022/03/31 05:47:11;;;;;;;21.15;19.15;;;;;;;33.05;57.61;100636.59;5023366;28;70572;-38
2022/03/31 05:49:42;;;;;;;20.05;18.05;;;;;;;33.10;58.03;100639.41;5001390;28;65198;-39
2022/03/31 05:52:13;;;;;;;19.85;17.98;;;;;;;33.07;57.54;100623.56;5020162;28;70510;-39
2022/03/31 05:54:44;;;;;;;19.53;17.93;;;;;;;33.12;57.55;100626.38;5023655;28;66168;-39
2022/03/31 05:57:15;;;;;;;20.63;18.30;;;;;;;33.01;57.88;100600.06;5002006;28;70544;-39
2022/03/31 05:59:46;;;;;;;19.77;18.08;;;;;;;33.13;57.73;100600.88;5023594;28;66077;-38
2022/03/31 06:02:17;;;;;;;19.63;17.77;;;;;;;33.19;57.92;100597.19;5022515;28;69557;-39
2022/03/31 06:05:08;;;;;;;19.63;17.88;;;;;;;33.03;57.59;100568.06;5022916;28;66079;-38
2022/03/31 06:07:39;;;;;;;19.38;17.67;;;;;;;33.10;57.73;100571.47;5022085;28;69054;-38
2022/03/31 06:10:10;;;;;;;20.48;18.45;;;;;;;33.22;57.79;100585.81;5011890;28;65709;-38
2022/03/31 06:12:40;;;;;;;18.90;17.20;;;;;;;33.17;58.04;100574.03;4998325;28;70152;-38
2022/03/31 06:15:11;;;;;;;19.00;17.37;;;;;;;33.22;58.00;100571.41;4980886;28;67122;-38
2022/03/31 06:17:44;;;;;;;19.92;17.92;;;;;;;33.24;57.83;100564.66;4997659;28;70048;-38
2022/03/31 06:20:14;;;;;;;17.88;16.23;;;;;;;33.21;57.48;100554.28;5000995;28;65643;-38
2022/03/31 06:22:45;;;;;;;18.50;16.80;;;;;;;33.22;57.81;100552.38;4995407;28;70367;-38
2022/03/31 06:25:17;;;;;;;18.92;17.38;;;;;;;33.27;57.80;100556.03;4997571;28;66579;-38
2022/03/31 06:27:48;;;;;;;19.85;17.92;;;;;;;33.27;57.89;100550.59;5023005;28;69984;-39
2022/03/31 06:30:19;;;;;;;20.27;16.83;;;;;;;33.27;57.89;100542.44;5019488;28;66297;-38
2022/03/31 06:32:50;;;;;;;18.10;16.63;;;;;;;33.30;57.79;100539.22;5022013;28;70046;-43
2022/03/31 06:35:22;;;;;;;17.60;16.05;;;;;;;33.29;57.88;100534.84;5022693;28;66272;-38
2022/03/31 06:37:52;;;;;;;;;;;;;;;32.99;58.54;100528.81;5019554;28;69263;-38
2022/03/31 06:40:22;;;;;;;18.17;16.63;;;;;;;33.31;57.87;100538.13;5022628;28;66059;-39
2022/03/31 06:42:53;;;;;;;17.57;16.10;;;;;;;33.28;57.70;100535.91;5022841;28;69268;-38
2022/03/31 06:45:25;;;;;;;18.63;16.90;;;;;;;33.18;57.82;100505.00;5003515;28;66015;-39
2022/03/31 06:47:59;;;;;;;18.88;17.23;;;;;;;33.34;57.73;100532.19;5021888;28;70149;-39
2022/03/31 06:50:32;;;;;;;18.00;16.42;;;;;;;33.03;57.80;100489.25;5022181;28;66405;-39
2022/03/31 06:53:03;;;;;;;17.65;16.15;;;;;;;33.35;57.44;100528.44;5020788;28;70196;-39
2022/03/31 06:55:35;;;;;;;18.58;16.88;;;;;;;33.36;57.67;100524.63;5021600;28;66150;-39
2022/03/31 06:58:05;;;;;;;18.80;17.08;;;;;;;33.34;57.49;100513.16;5016208;28;69759;-39
2022/03/31 07:00:36;;;;;;;17.15;15.65;;;;;;;33.32;57.76;100501.75;4993220;28;65679;-39
2022/03/31 07:03:07;;;;;;;17.43;15.97;;;;;;;33.32;57.77;100512.63;4997328;28;69805;-39
2022/03/31 07:05:39;;;;;;;17.83;16.17;;;;;;;33.27;57.84;100504.38;5017405;28;66281;-39
2022/03/31 07:08:10;;;;;;;17.58;16.10;;;;;;;33.35;57.86;100520.28;5014933;28;70226;-40
2022/03/31 07:10:41;;;;;;;16.73;15.63;;;;;;;33.28;57.84;100508.72;5005110;28;66249;-39
2022/03/31 07:13:12;;;;;;;18.08;16.45;;;;;;;33.33;58.13;100508.00;4998186;28;70568;-39
2022/03/31 07:15:43;;;;;;;16.50;15.20;;;;;;;33.33;57.91;100502.56;5017908;28;65511;-39
2022/03/31 07:18:14;;;;;;;16.63;15.23;;;;;;;33.32;58.03;100506.31;5018039;28;70864;-39
2022/03/31 07:20:45;;;;;;;17.47;16.07;;;;;;;33.30;58.32;100506.59;5014778;28;66970;-39
2022/03/31 07:23:18;;;;;;;17.20;15.70;;;;;;;33.30;58.32;100508.50;5019856;28;69984;-38
2022/03/31 07:25:50;;;;;;;16.77;15.48;;;;;;;33.33;58.18;100525.13;5006447;28;66359;-38
2022/03/31 07:28:22;;;;;;;17.60;15.93;;;;;;;33.32;58.41;100550.69;5016380;28;70603;-39
2022/03/31 07:30:53;;;;;;;17.80;15.90;;;;;;;33.31;58.52;100546.28;5030995;28;65794;-39
2022/03/31 07:33:24;;;;;;;16.73;15.07;;;;;;;33.33;58.44;100552.31;5028835;28;70030;-39
2022/03/31 07:35:55;;;;;;;16.33;15.02;;;;;;;33.33;58.88;100546.06;5000517;28;64872;-38
2022/03/31 07:38:26;;;;;;;15.80;14.55;;;;;;;33.33;58.77;100538.72;5018628;28;70113;-38
2022/03/31 07:40:56;;;;;;;16.25;14.70;;;;;;;33.33;58.77;100536.00;4995550;28;65417;-39
2022/03/31 07:43:27;;;;;;;16.35;14.13;;;;;;;33.32;58.98;100523.50;5009316;28;70549;-39
2022/03/31 07:45:57;;;;;;;15.25;14.02;;;;;;;33.31;59.22;100505.50;5018200;28;65056;-38
2022/03/31 07:48:28;;;;;;;16.45;14.40;;;;;;;33.29;58.94;100498.66;5016999;28;70574;-38
2022/03/31 07:50:59;;;;;;;15.95;13.88;;;;;;;33.31;58.69;100499.25;5001291;28;65149;-39
2022/03/31 07:53:34;;;;;;;13.70;12.70;;;;;;;33.32;58.94;100500.91;5016709;28;70020;-39
2022/03/31 07:56:06;;;;;;;14.73;13.45;;;;;;;33.24;59.21;100494.00;5011978;28;66673;-39
2022/03/31 07:58:37;;;;;;;13.27;12.25;;;;;;;33.30;59.12;100514.75;4997674;28;69488;-39
2022/03/31 08:01:07;;;;;;;15.15;12.10;;;;;;;33.33;59.27;100511.53;5008541;28;65909;-38
2022/03/31 08:03:38;;;;;;;14.45;11.88;;;;;;;33.30;59.53;100509.31;5019445;28;69520;-39
2022/03/31 08:06:09;;;;;;;13.50;12.25;;;;;;;33.31;59.30;100507.41;5019087;28;66207;-39
2022/03/31 08:08:40;;;;;;;11.82;11.00;;;;;;;33.24;59.32;100494.00;5005909;28;70221;-40
2022/03/31 08:11:12;;;;;;;16.05;11.13;;;;;;;33.28;59.41;100489.69;5008846;28;65248;-39
2022/03/31 08:13:42;;;;;;;11.88;10.75;;;;;;;33.30;59.30;100503.88;4998696;28;70218;-39
2022/03/31 08:16:13;;;;;;;11.50;10.43;;;;;;;33.29;59.37;100491.38;5015072;28;65542;-39
2022/03/31 08:18:44;;;;;;;10.90;10.10;;;;;;;33.28;59.37;100488.88;5008945;28;70207;-38
2022/03/31 08:21:15;;;;;;;10.63;9.23;;;;;;;33.27;59.42;100493.50;5015473;28;66664;-39
2022/03/31 08:23:46;;;;;;;10.35;9.35;;;;;;;33.26;59.19;100491.81;5010428;28;69579;-39
2022/03/31 08:26:16;;;;;;;9.88;9.27;;;;;;;33.23;59.22;100489.59;4999192;28;66486;-39
2022/03/31 08:28:49;;;;;;;9.00;8.30;;;;;;;32.99;59.29;100439.16;5014085;28;70348;-39
2022/03/31 08:31:20;;;;;;;11.18;9.13;;;;;;;33.22;59.05;100479.81;5009392;28;66773;-39
2022/03/31 08:33:50;;;;;;;9.55;7.65;;;;;;;32.99;59.52;100441.84;4992335;28;70066;-39
2022/03/31 08:36:21;;;;;;;8.15;7.40;;;;;;;33.21;59.17;100472.75;5016482;28;66091;-39
2022/03/31 08:38:51;;;;;;;8.38;7.60;;;;;;;33.20;58.72;100465.63;5016942;28;69786;-39
2022/03/31 08:41:28;;;;;;;8.05;7.25;;;;;;;33.18;58.34;100464.22;5006948;28;66207;-39
2022/03/31 08:43:59;;;;;;;11.82;10.75;;;;;;;33.18;58.24;100484.06;5012205;28;70374;-39
2022/03/31 08:46:34;;;;;;;14.52;12.48;;;;;;;32.82;57.92;100431.81;5008721;28;66362;-39
2022/03/31 08:49:08;;;;;;;12.57;9.85;;;;;;;32.87;58.09;100439.22;5010778;28;70275;-39
2022/03/31 08:51:46;;;;;;;11.60;9.82;;;;;;;33.08;58.27;100478.50;5005436;28;66532;-39
2022/03/31 08:54:17;;;;;;;11.02;9.95;;;;;;;33.13;58.33;100492.16;5016345;28;69636;-39
2022/03/31 08:56:48;;;;;;;10.43;9.63;;;;;;;33.15;58.05;100490.00;5008315;28;65511;-38
2022/03/31 08:59:38;;;;;;;11.45;10.27;;;;;;;33.13;57.97;100486.72;4992410;28;70288;-38
2022/03/31 09:02:20;;;;;;;10.38;9.65;;;;;;;33.11;58.00;100478.81;5009819;28;66223;-37
2022/03/31 09:05:05;;;;;;;10.70;9.52;;;;;;;32.84;57.92;100451.38;4990473;28;68933;-39
2022/03/31 09:07:56;;;;;;;10.13;9.43;;;;;;;32.44;57.93;100381.66;4991334;28;64935;-38
2022/03/31 09:10:34;;;;;;;9.48;8.85;;;;;;;33.05;57.79;100463.50;5006382;28;70316;-39
2022/03/31 09:13:20;;;;;;;12.00;9.18;;;;;;;33.00;57.89;100468.00;5011702;28;65845;-38
2022/03/31 09:15:53;;;;;;;11.70;10.82;;;;;;;33.05;57.86;100468.09;5014744;28;70364;-38
2022/03/31 09:18:26;;;;;;;11.73;10.60;;;;;;;33.03;57.81;100478.38;5014962;28;66924;-38
2022/03/31 09:20:59;;;;;;;11.27;10.07;;;;;;;33.02;57.94;100468.59;5014703;28;69343;-38
2022/03/31 09:23:39;;;;;;;11.65;9.43;;;;;;;32.98;57.77;100456.53;5004874;28;66458;-38
2022/03/31 09:26:13;;;;;;;8.88;8.27;;;;;;;32.66;57.99;100400.03;5014564;28;70243;-38
2022/03/31 09:28:47;;;;;;;9.48;8.65;;;;;;;32.96;57.79;100447.78;4991298;28;43199;-38
2022/03/31 09:31:24;;;;;;;9.65;8.80;;;;;;;32.81;57.72;100427.44;5006832;28;69955;-38
2022/03/31 09:33:59;;;;;;;13.48;8.35;;;;;;;32.96;57.94;100450.50;5008163;28;65992;-39
2022/03/31 09:36:30;;;;;;;9.68;8.38;;;;;;;32.86;57.74;100446.56;5005296;28;69798;-38
2022/03/31 09:39:08;;;;;;;9.93;9.00;;;;;;;32.92;57.91;100458.31;5014255;28;66490;-39
2022/03/31 09:41:41;;;;;;;9.15;8.32;;;;;;;32.93;57.92;100459.97;5014556;28;69370;-39
2022/03/31 09:44:17;;;;;;;9.15;8.35;;;;;;;32.58;57.79;100414.00;5011959;28;66795;-39
2022/03/31 09:46:50;;;;;;;10.32;8.52;;;;;;;32.90;57.72;100461.31;4995988;28;69925;-38
2022/03/31 09:49:27;;;;;;;9.38;7.55;;;;;;;32.84;57.81;100462.25;4994243;28;65435;-38
2022/03/31 09:52:01;;;;;;;9.23;8.43;;;;;;;32.80;57.90;100461.13;4994732;28;70121;-40
2022/03/31 09:54:33;;;;;;;18.52;16.73;;;;;;;32.75;58.41;100468.34;5014646;28;66339;-38
2022/03/31 09:57:09;;;;;;;30.25;24.60;;;;;;;32.28;60.26;100436.72;5014943;28;70206;-39
2022/03/31 09:59:42;;;;;;;54.88;42.20;;;;;;;32.34;60.86;100487.31;4992162;28;65167;-39
2022/03/31 10:02:15;;;;;;;48.88;39.83;;;;;;;32.21;60.18;100495.75;5011248;28;70090;-38
2022/03/31 10:04:46;;;;;;;25.08;21.55;;;;;;;32.03;60.46;100494.81;5010782;28;66456;-38
2022/03/31 10:07:18;;;;;;;19.10;17.38;;;;;;;31.91;60.93;100491.28;4997400;28;70086;-38
2022/03/31 10:09:50;;;;;;;24.77;18.45;;;;;;;31.47;61.11;100452.81;5015194;28;65667;-37
2022/03/31 10:12:29;;;;;;;;;;;;;;;31.37;62.26;100506.75;5025057;28;70157;-38
2022/03/31 10:15:08;;;;;;;27.33;19.60;;;;;;;31.63;62.08;100508.22;5012848;28;66382;-38
2022/03/31 10:17:43;;;;;;;26.45;21.33;;;;;;;31.61;62.39;100524.72;5017180;28;69302;-38
2022/03/31 10:20:16;;;;;;;30.60;22.40;;;;;;;31.61;62.57;100524.72;5003096;28;66205;-36
2022/03/31 10:25:49;;;;;;;22.92;20.45;;;;;;;31.22;63.09;100485.50;5013577;28;66117;-38
2022/03/31 10:28:21;;;;;;;26.02;20.75;;;;;;;31.34;63.50;100507.19;5023658;28;70024;-38
2022/03/31 10:30:56;;;;;;;23.23;17.92;;;;;;;31.52;63.60;100542.41;4999325;28;66152;-38
2022/03/31 10:33:30;;;;;;;25.20;18.90;;;;;;;31.50;63.58;100539.09;5026263;28;69649;-38
2022/03/31 10:36:19;;;;;;;25.35;20.00;;;;;;;31.38;63.67;100543.66;5022898;28;65485;-37
2022/03/31 10:38:54;;;;;;;;;;;;;;;31.13;64.39;100541.91;5025915;28;70450;-37
2022/03/31 10:41:36;;;;;;;26.33;19.75;;;;;;;31.19;64.23;100504.13;5027698;28;66455;-41
2022/03/31 10:44:12;;;;;;;26.45;22.90;;;;;;;31.45;64.20;100544.38;5017516;28;69244;-38
2022/03/31 10:46:47;;;;;;;27.60;20.77;;;;;;;31.19;64.49;100506.81;5001213;28;66164;-37
2022/03/31 10:49:20;;;;;;;31.73;21.30;;;;;;;31.48;64.57;100559.34;5015734;28;69518;-38
2022/03/31 10:51:53;;;;;;;28.08;20.52;;;;;;;31.46;64.44;100556.88;4996442;28;65627;-38
2022/03/31 10:54:25;;;;;;;;;;;;;;;31.15;65.75;100558.75;4996443;28;70192;-38
2022/03/31 10:57:09;;;;;;;21.90;18.48;;;;;;;31.03;64.96;100511.00;5020087;28;67329;-37
2022/03/31 10:59:41;;;;;;;24.58;19.42;;;;;;;31.40;65.60;100571.38;5010234;28;69746;-37
2022/03/31 11:02:18;;;;;;;26.08;18.63;;;;;;;31.39;65.06;100585.97;5005380;28;66650;-38
2022/03/31 11:04:58;;;;;;;24.25;17.50;;;;;;;31.35;65.12;100591.00;4996945;28;69250;-37
2022/03/31 11:07:28;;;;;;;21.55;17.13;;;;;;;31.33;65.47;100589.56;4994150;28;66565;-37
2022/03/31 11:10:13;;;;;;;23.77;17.10;;;;;;;31.03;65.80;100555.16;4987172;28;69162;-38
2022/03/31 11:12:44;;;;;;;19.48;17.27;;;;;;;31.30;66.40;100598.16;5001223;28;66474;-37
2022/03/31 11:15:18;;;;;;;24.60;17.92;;;;;;;31.40;66.93;100609.31;5017723;28;70122;-38
2022/03/31 11:17:49;;;;;;;31.23;21.10;;;;;;;31.45;67.49;100606.72;5019065;28;65163;-37
2022/03/31 11:20:22;;;;;;;23.05;20.38;;;;;;;31.19;67.40;100561.84;5015974;28;69299;-37
2022/03/31 11:23:03;;;;;;;20.88;18.52;;;;;;;31.50;67.71;100619.59;5014164;28;66343;-38
2022/03/31 11:25:35;;;;;;;22.73;18.80;;;;;;;31.47;67.76;100620.06;5015037;28;70306;-38
2022/03/31 11:28:12;;;;;;;20.52;18.38;;;;;;;31.10;67.46;100577.59;5015886;28;66186;-38
2022/03/31 11:30:43;;;;;;;29.33;20.98;;;;;;;31.40;67.75;100625.59;4992114;28;70119;-38
2022/03/31 11:33:16;;;;;;;29.08;22.67;;;;;;;31.33;67.38;100617.50;5012871;28;66896;-38
2022/03/31 11:35:52;;;;;;;28.33;22.83;;;;;;;31.36;68.11;100635.22;5014116;28;70055;-38
2022/03/31 11:38:23;;;;;;;29.73;22.42;;;;;;;31.34;67.58;100640.00;5019791;28;66114;-38
2022/03/31 11:40:55;;;;;;;24.35;19.90;;;;;;;31.36;68.19;100643.34;5013449;28;69161;-38